Wetterdaten: Woche 30.05.22 - 05.06.22 (KW22)
Datum Zeit Temp. Aussen Temp. o. S. Temp +5cm Feuchte Auss Luftdruck Regen Sonnenschein Regendauer Solar Windben Empfang
30.05.2022 00:00 10,6 C 10,0 C 6,7 C 81 % 1013,7 hPa 0,0 l/m 0,00 h 0,00 h 0 W/m 8,5 km/h (2 Bft) 97,91 %
30.05.2022 01:00 10,5 C 10,0 C 6,7 C 80 % 1013,6 hPa 0,0 l/m 0,00 h 0,00 h 0 W/m 3,7 km/h (1 Bft) 96,51 %
30.05.2022 02:00 10,3 C 9,5 C 6,2 C 82 % 1013,3 hPa 0,0 l/m 0,00 h 0,00 h 0 W/m 2,4 km/h (1 Bft) 98,29 %
30.05.2022 03:00 10,0 C 9,3 C 6,1 C 85 % 1013,1 hPa 0,0 l/m 0,00 h 0,00 h 0 W/m 2,7 km/h (1 Bft) 98,22 %
30.05.2022 04:00 9,8 C 8,9 C 5,7 C 87 % 1012,8 hPa 0,0 l/m 0,00 h 0,00 h 0 W/m 4,2 km/h (1 Bft) 95,47 %
30.05.2022 05:00 9,2 C 8,3 C 5,5 C 87 % 1012,9 hPa 0,0 l/m 0,00 h 0,00 h 8 W/m 4,3 km/h (1 Bft) 97,60 %
30.05.2022 06:00 9,3 C 9,0 C 5,6 C 86 % 1013,1 hPa 0,0 l/m 0,00 h 0,00 h 32 W/m 3,9 km/h (1 Bft) 97,22 %
30.05.2022 07:00 9,8 C 9,8 C 6,3 C 86 % 1013,4 hPa 0,0 l/m 0,07 h 0,07 h 94 W/m 4,8 km/h (1 Bft) 97,51 %
30.05.2022 08:00 11,0 C 12,1 C 7,7 C 83 % 1013,7 hPa 0,0 l/m 0,97 h 0,00 h 238 W/m 6,8 km/h (2 Bft) 98,00 %
30.05.2022 09:00 11,9 C 13,6 C 9,3 C 77 % 1014,0 hPa 0,0 l/m 0,77 h 0,00 h 343 W/m 8,1 km/h (2 Bft) 97,36 %
30.05.2022 10:00 13,3 C 15,1 C 12,8 C 68 % 1014,0 hPa 0,0 l/m 0,57 h 0,00 h 564 W/m 6,7 km/h (2 Bft) 94,82 %
30.05.2022 11:00 13,6 C 15,0 C 11,8 C 65 % 1014,1 hPa 0,0 l/m 0,30 h 0,00 h 462 W/m 6,1 km/h (2 Bft) 99,72 %
30.05.2022 12:00 14,4 C 15,5 C 12,0 C 60 % 1014,1 hPa 0,0 l/m 0,73 h 0,00 h 458 W/m 9,9 km/h (2 Bft) 96,35 %
30.05.2022 13:00 14,3 C 15,3 C 11,6 C 61 % 1014,3 hPa 0,0 l/m 0,37 h 0,00 h 416 W/m 10,2 km/h (2 Bft) 99,52 %
30.05.2022 14:00 15,6 C 18,0 C 13,0 C 56 % 1014,3 hPa 0,0 l/m 1,00 h 0,00 h 647 W/m 8,7 km/h (2 Bft) 95,82 %
30.05.2022 15:00 16,0 C 17,0 C 12,4 C 56 % 1014,2 hPa 0,0 l/m 0,47 h 0,00 h 383 W/m 7,4 km/h (2 Bft) 97,72 %
30.05.2022 16:00 16,3 C 18,2 C 12,7 C 55 % 1014,1 hPa 0,0 l/m 0,80 h 0,00 h 430 W/m 7,6 km/h (2 Bft) 98,57 %
30.05.2022 17:00 16,4 C 18,3 C 12,8 C 53 % 1014,0 hPa 0,0 l/m 0,77 h 0,00 h 350 W/m 6,4 km/h (2 Bft) 97,15 %
30.05.2022 18:00 17,1 C 20,6 C 13,4 C 50 % 1013,8 hPa 0,0 l/m 0,90 h 0,00 h 366 W/m 5,6 km/h (1 Bft) 97,54 %
30.05.2022 19:00 16,9 C 17,1 C 12,6 C 50 % 1013,8 hPa 0,0 l/m 0,67 h 0,00 h 164 W/m 4,5 km/h (1 Bft) 96,51 %
30.05.2022 20:00 15,9 C 15,4 C 11,4 C 56 % 1014,0 hPa 0,0 l/m 0,00 h 0,00 h 60 W/m 3,1 km/h (1 Bft) 99,29 %
30.05.2022 21:00 14,4 C 13,3 C 9,5 C 65 % 1014,1 hPa 0,0 l/m 0,00 h 0,00 h 13 W/m 1,7 km/h (1 Bft) 96,77 %
30.05.2022 22:00 12,9 C 11,5 C 7,9 C 72 % 1014,5 hPa 0,0 l/m 0,00 h 0,00 h 0 W/m 0,0 km/h (0 Bft) 97,61 %
30.05.2022 23:00 11,6 C 10,6 C 7,1 C 76 % 1014,7 hPa 0,0 l/m 0,00 h 0,00 h 0 W/m 0,0 km/h (0 Bft) 96,94 %
31.05.2022 00:00 11,2 C 10,4 C 7,2 C 79 % 1014,6 hPa 0,0 l/m 0,00 h 0,00 h 0 W/m 0,0 km/h (0 Bft) 98,41 %
31.05.2022 01:00 11,1 C 10,5 C 7,2 C 81 % 1014,5 hPa 0,0 l/m 0,00 h 0,00 h 0 W/m 0,2 km/h (0 Bft) 98,22 %
31.05.2022 02:00 10,8 C 9,8 C 6,8 C 82 % 1014,2 hPa 0,0 l/m 0,00 h 0,00 h 0 W/m 0,1 km/h (0 Bft) 97,31 %
31.05.2022 03:00 10,5 C 10,0 C 6,9 C 82 % 1014,0 hPa 0,0 l/m 0,00 h 0,00 h 0 W/m 2,3 km/h (1 Bft) 95,72 %
31.05.2022 04:00 10,7 C 10,1 C 6,9 C 82 % 1013,7 hPa 0,0 l/m 0,00 h 0,00 h 0 W/m 0,9 km/h (0 Bft) 99,45 %
31.05.2022 05:00 10,6 C 10,0 C 6,7 C 84 % 1013,6 hPa 0,0 l/m 0,00 h 0,00 h 5 W/m 0,2 km/h (0 Bft) 96,27 %
31.05.2022 06:00 10,7 C 10,3 C 6,9 C 84 % 1013,4 hPa 0,0 l/m 0,00 h 0,00 h 19 W/m 1,2 km/h (1 Bft) 96,57 %
31.05.2022 07:00 11,0 C 10,7 C 7,2 C 83 % 1013,4 hPa 0,0 l/m 0,00 h 0,10 h 39 W/m 3,4 km/h (1 Bft) 98,16 %
31.05.2022 08:00 11,2 C 10,5 C 6,7 C 85 % 1013,8 hPa 0,2 l/m 0,00 h 0,43 h 45 W/m 4,1 km/h (1 Bft) 97,08 %
31.05.2022 09:00 11,6 C 12,4 C 8,0 C 88 % 1013,5 hPa 0,0 l/m 0,00 h 0,00 h 195 W/m 5,2 km/h (1 Bft) 97,36 %
31.05.2022 10:00 13,4 C 15,1 C 10,8 C 83 % 1013,5 hPa 0,0 l/m 0,23 h 0,00 h 324 W/m 6,3 km/h (2 Bft) 97,56 %
31.05.2022 11:00 15,5 C 18,6 C 13,7 C 75 % 1013,3 hPa 0,0 l/m 0,83 h 0,00 h 783 W/m 7,5 km/h (2 Bft) 97,08 %
31.05.2022 12:00 17,8 C 20,0 C 18,2 C 64 % 1013,0 hPa 0,0 l/m 0,87 h 0,00 h 789 W/m 8,4 km/h (2 Bft) 95,55 %
31.05.2022 13:00 19,0 C 21,1 C 21,3 C 58 % 1012,7 hPa 0,0 l/m 1,00 h 0,00 h 947 W/m 9,5 km/h (2 Bft) 98,72 %
31.05.2022 14:00 19,8 C 21,6 C 16,6 C 55 % 1012,4 hPa 0,0 l/m 0,40 h 0,00 h 565 W/m 7,4 km/h (2 Bft) 98,00 %
31.05.2022 15:00 18,6 C 18,8 C 14,9 C 55 % 1012,3 hPa 0,0 l/m 0,20 h 0,07 h 270 W/m 15,4 km/h (3 Bft) 97,16 %
31.05.2022 16:00 14,9 C 16,4 C 9,4 C 80 % 1012,8 hPa 2,6 l/m 0,40 h 0,47 h 364 W/m 11,5 km/h (2 Bft) 97,65 %
31.05.2022 17:00 17,2 C 20,6 C 11,5 C 73 % 1012,5 hPa 0,0 l/m 0,50 h 0,00 h 385 W/m 6,7 km/h (2 Bft) 97,84 %
31.05.2022 18:00 18,1 C 21,8 C 14,2 C 66 % 1012,4 hPa 0,0 l/m 0,98 h 0,00 h 363 W/m 4,5 km/h (1 Bft) 97,37 %
31.05.2022 19:00 19,0 C 19,3 C 13,6 C 61 % 1012,3 hPa 0,0 l/m 0,77 h 0,00 h 203 W/m 4,5 km/h (1 Bft) 96,67 %
31.05.2022 20:00 17,3 C 16,1 C 12,2 C 69 % 1012,7 hPa 0,0 l/m 0,00 h 0,00 h 29 W/m 2,1 km/h (1 Bft) 96,24 %
31.05.2022 21:00 14,4 C 12,8 C 9,1 C 78 % 1013,7 hPa 3,2 l/m 0,00 h 0,43 h 9 W/m 15,9 km/h (3 Bft) 97,12 %
31.05.2022 22:00 11,5 C 10,4 C 6,7 C 92 % 1014,0 hPa 0,0 l/m 0,00 h 0,00 h 0 W/m 5,5 km/h (1 Bft) 99,05 %
31.05.2022 23:00 11,1 C 10,5 C 6,9 C 94 % 1014,2 hPa 0,2 l/m 0,00 h 0,10 h 0 W/m 1,7 km/h (1 Bft) 96,07 %
01.06.2022 00:00 11,2 C 10,4 C 7,0 C 95 % 1014,4 hPa 0,0 l/m 0,00 h 0,00 h 0 W/m 0,3 km/h (0 Bft) 97,39 %
01.06.2022 01:00 10,8 C 9,9 C 6,6 C 95 % 1014,1 hPa 0,0 l/m 0,00 h 0,00 h 0 W/m 2,9 km/h (1 Bft) 99,36 %
01.06.2022 02:00 10,3 C 9,4 C 6,1 C 95 % 1014,0 hPa 0,0 l/m 0,00 h 0,00 h 0 W/m 2,1 km/h (1 Bft) 96,24 %
01.06.2022 03:00 10,1 C 9,4 C 6,0 C 96 % 1013,9 hPa 0,0 l/m 0,00 h 0,00 h 0 W/m 4,5 km/h (1 Bft) 97,45 %
01.06.2022 04:00 9,5 C 8,5 C 5,3 C 96 % 1013,8 hPa 0,0 l/m 0,00 h 0,00 h 0 W/m 1,0 km/h (0 Bft) 97,50 %
01.06.2022 05:00 9,3 C 8,6 C 5,4 C 96 % 1014,2 hPa 0,0 l/m 0,00 h 0,00 h 8 W/m 4,1 km/h (1 Bft) 98,02 %
01.06.2022 06:00 9,3 C 9,0 C 5,7 C 96 % 1014,5 hPa 0,0 l/m 0,00 h 0,00 h 30 W/m 5,0 km/h (1 Bft) 97,31 %
01.06.2022 07:00 9,8 C 9,7 C 6,5 C 95 % 1014,5 hPa 0,0 l/m 0,13 h 0,00 h 72 W/m 10,7 km/h (2 Bft) 96,86 %
01.06.2022 08:00 11,7 C 14,6 C 9,5 C 92 % 1014,8 hPa 0,0 l/m 1,00 h 0,00 h 402 W/m 12,3 km/h (3 Bft) 99,57 %
01.06.2022 09:00 13,8 C 17,1 C 12,6 C 84 % 1015,0 hPa 0,0 l/m 0,87 h 0,00 h 452 W/m 8,8 km/h (2 Bft) 96,49 %
01.06.2022 10:00 15,1 C 16,9 C 15,0 C 78 % 1015,3 hPa 0,0 l/m 0,73 h 0,00 h 572 W/m 11,6 km/h (2 Bft) 99,27 %
01.06.2022 11:00 16,4 C 17,8 C 14,3 C 71 % 1015,3 hPa 0,0 l/m 0,50 h 0,00 h 507 W/m 12,3 km/h (3 Bft) 95,59 %
01.06.2022 12:00 17,3 C 18,4 C 16,7 C 66 % 1015,2 hPa 0,0 l/m 0,60 h 0,00 h 503 W/m 15,5 km/h (3 Bft) 97,40 %
01.06.2022 13:00 16,9 C 17,6 C 14,5 C 68 % 1015,3 hPa 0,0 l/m 0,30 h 0,10 h 410 W/m 12,2 km/h (2 Bft) 98,16 %
01.06.2022 14:00 16,9 C 16,9 C 13,0 C 66 % 1015,7 hPa 0,4 l/m 0,23 h 0,23 h 351 W/m 20,1 km/h (4 Bft) 96,25 %
01.06.2022 15:00 14,0 C 13,7 C 10,4 C 81 % 1016,4 hPa 0,0 l/m 0,00 h 0,23 h 246 W/m 15,0 km/h (3 Bft) 96,83 %
01.06.2022 16:00 13,7 C 13,5 C 10,3 C 82 % 1016,4 hPa 0,0 l/m 0,00 h 0,00 h 125 W/m 5,8 km/h (2 Bft) 98,94 %
01.06.2022 17:00 14,9 C 14,9 C 11,3 C 77 % 1016,5 hPa 0,2 l/m 0,00 h 0,00 h 180 W/m 5,9 km/h (2 Bft) 96,65 %
01.06.2022 18:00 15,9 C 16,0 C 12,5 C 72 % 1016,6 hPa 0,0 l/m 0,17 h 0,00 h 183 W/m 10,8 km/h (2 Bft) 96,81 %
01.06.2022 19:00 16,8 C 17,1 C 12,6 C 66 % 1016,8 hPa 0,0 l/m 0,80 h 0,00 h 254 W/m 12,8 km/h (3 Bft) 95,71 %
01.06.2022 20:00 15,8 C 15,0 C 11,2 C 69 % 1017,2 hPa 0,0 l/m 0,00 h 0,00 h 41 W/m 8,0 km/h (2 Bft) 99,03 %
01.06.2022 21:00 14,7 C 13,4 C 9,8 C 73 % 1017,8 hPa 0,0 l/m 0,00 h 0,00 h 12 W/m 4,3 km/h (1 Bft) 96,36 %
01.06.2022 22:00 12,9 C 11,2 C 7,8 C 77 % 1018,7 hPa 0,0 l/m 0,00 h 0,00 h 0 W/m 1,2 km/h (1 Bft) 97,79 %
01.06.2022 23:00 11,7 C 10,4 C 7,0 C 81 % 1019,1 hPa 0,0 l/m 0,00 h 0,00 h 0 W/m 0,5 km/h (0 Bft) 96,49 %
02.06.2022 00:00 10,7 C 9,3 C 6,1 C 84 % 1019,2 hPa 0,0 l/m 0,00 h 0,00 h 0 W/m 0,8 km/h (0 Bft) 95,79 %
02.06.2022 01:00 10,0 C 8,8 C 5,7 C 87 % 1019,6 hPa 0,0 l/m 0,00 h 0,00 h 0 W/m 0,7 km/h (0 Bft) 98,86 %
02.06.2022 02:00 9,4 C 8,2 C 5,1 C 89 % 1019,8 hPa 0,0 l/m 0,00 h 0,00 h 0 W/m 1,6 km/h (1 Bft) 96,93 %
02.06.2022 03:00 8,8 C 7,6 C 4,7 C 91 % 1020,1 hPa 0,0 l/m 0,00 h 0,00 h 0 W/m 0,4 km/h (0 Bft) 96,01 %
02.06.2022 04:00 8,1 C 7,0 C 4,3 C 92 % 1020,3 hPa 0,0 l/m 0,00 h 0,00 h 0 W/m 0,0 km/h (0 Bft) 98,51 %
02.06.2022 05:00 7,7 C 6,8 C 4,0 C 93 % 1020,6 hPa 0,0 l/m 0,00 h 0,00 h 9 W/m 0,2 km/h (0 Bft) 96,70 %
02.06.2022 06:00 7,9 C 7,3 C 4,5 C 94 % 1021,2 hPa 0,0 l/m 0,00 h 0,00 h 27 W/m 0,3 km/h (0 Bft) 96,92 %
02.06.2022 07:00 8,8 C 8,9 C 5,7 C 95 % 1021,5 hPa 0,0 l/m 0,13 h 0,00 h 86 W/m 2,0 km/h (1 Bft) 95,12 %
02.06.2022 08:00 11,6 C 15,0 C 8,9 C 92 % 1021,8 hPa 0,0 l/m 1,00 h 0,00 h 388 W/m 3,6 km/h (1 Bft) 97,69 %
02.06.2022 09:00 14,6 C 20,7 C 13,8 C 81 % 1022,2 hPa 0,0 l/m 1,00 h 0,00 h 604 W/m 5,0 km/h (1 Bft) 96,31 %
02.06.2022 10:00 16,8 C 20,0 C 17,0 C 71 % 1022,3 hPa 0,0 l/m 1,00 h 0,00 h 831 W/m 7,5 km/h (2 Bft) 94,12 %
02.06.2022 11:00 17,8 C 21,0 C 16,5 C 64 % 1022,4 hPa 0,0 l/m 0,97 h 0,00 h 857 W/m 8,0 km/h (2 Bft) 96,44 %
02.06.2022 12:00 19,3 C 21,3 C 21,4 C 59 % 1022,3 hPa 0,0 l/m 0,87 h 0,00 h 881 W/m 9,0 km/h (2 Bft) 96,70 %
02.06.2022 13:00 20,0 C 22,0 C 24,3 C 54 % 1022,0 hPa 0,0 l/m 0,93 h 0,00 h 925 W/m 10,3 km/h (2 Bft) 98,51 %
02.06.2022 14:00 20,6 C 23,8 C 17,1 C 54 % 1021,4 hPa 0,0 l/m 1,00 h 0,00 h 877 W/m 9,4 km/h (2 Bft) 98,04 %
02.06.2022 15:00 21,6 C 24,7 C 17,3 C 51 % 1021,0 hPa 0,0 l/m 1,00 h 0,00 h 864 W/m 9,9 km/h (2 Bft) 96,26 %
02.06.2022 16:00 22,5 C 27,9 C 18,4 C 48 % 1020,8 hPa 0,0 l/m 1,00 h 0,00 h 766 W/m 10,1 km/h (2 Bft) 99,22 %
02.06.2022 17:00 22,8 C 28,1 C 19,0 C 46 % 1020,5 hPa 0,0 l/m 1,00 h 0,00 h 580 W/m 9,1 km/h (2 Bft) 97,07 %
02.06.2022 18:00 23,0 C 28,5 C 19,3 C 46 % 1020,0 hPa 0,0 l/m 1,00 h 0,00 h 453 W/m 10,0 km/h (2 Bft) 98,44 %
02.06.2022 19:00 21,7 C 22,3 C 16,8 C 49 % 1019,9 hPa 0,0 l/m 0,87 h 0,00 h 245 W/m 8,6 km/h (2 Bft) 96,32 %
02.06.2022 20:00 19,3 C 18,6 C 14,8 C 56 % 1019,8 hPa 0,0 l/m 0,00 h 0,00 h 33 W/m 6,0 km/h (2 Bft) 98,89 %
02.06.2022 21:00 17,4 C 16,2 C 12,7 C 62 % 1019,8 hPa 0,0 l/m 0,00 h 0,00 h 11 W/m 4,1 km/h (1 Bft) 96,97 %
02.06.2022 22:00 15,6 C 14,4 C 11,0 C 68 % 1020,2 hPa 0,0 l/m 0,00 h 0,00 h 0 W/m 3,8 km/h (1 Bft) 96,45 %
02.06.2022 23:00 14,3 C 13,3 C 10,0 C 72 % 1020,2 hPa 0,0 l/m 0,00 h 0,00 h 0 W/m 3,2 km/h (1 Bft) 96,53 %
03.06.2022 00:00 13,4 C 12,5 C 9,1 C 74 % 1019,9 hPa 0,0 l/m 0,00 h 0,00 h 0 W/m 3,2 km/h (1 Bft) 98,01 %
03.06.2022 01:00 12,7 C 11,9 C 8,6 C 77 % 1019,9 hPa 0,0 l/m 0,00 h 0,00 h 0 W/m 3,4 km/h (1 Bft) 98,51 %
03.06.2022 02:00 12,0 C 10,9 C 7,9 C 81 % 1019,7 hPa 0,0 l/m 0,00 h 0,00 h 0 W/m 1,4 km/h (1 Bft) 95,67 %
03.06.2022 03:00 11,4 C 10,6 C 7,4 C 84 % 1019,5 hPa 0,0 l/m 0,00 h 0,00 h 0 W/m 2,2 km/h (1 Bft) 97,51 %
03.06.2022 04:00 10,9 C 9,8 C 6,8 C 85 % 1019,1 hPa 0,0 l/m 0,00 h 0,00 h 0 W/m 1,2 km/h (1 Bft) 98,29 %
03.06.2022 05:00 10,2 C 9,4 C 6,7 C 87 % 1018,9 hPa 0,0 l/m 0,00 h 0,00 h 8 W/m 0,0 km/h (0 Bft) 98,36 %
03.06.2022 06:00 10,2 C 9,8 C 6,8 C 88 % 1018,8 hPa 0,0 l/m 0,00 h 0,00 h 19 W/m 2,6 km/h (1 Bft) 95,89 %
03.06.2022 07:00 11,4 C 11,7 C 8,2 C 90 % 1018,6 hPa 0,0 l/m 0,20 h 0,00 h 86 W/m 3,7 km/h (1 Bft) 98,72 %
03.06.2022 08:00 15,7 C 18,9 C 12,3 C 77 % 1018,3 hPa 0,0 l/m 1,00 h 0,00 h 409 W/m 4,1 km/h (1 Bft) 96,94 %
03.06.2022 09:00 19,6 C 25,1 C 17,4 C 63 % 1018,3 hPa 0,0 l/m 1,00 h 0,00 h 573 W/m 3,6 km/h (1 Bft) 95,51 %
03.06.2022 10:00 21,3 C 23,9 C 20,3 C 58 % 1017,8 hPa 0,0 l/m 1,00 h 0,00 h 704 W/m 7,9 km/h (2 Bft) 97,44 %
03.06.2022 11:00 22,8 C 25,9 C 20,5 C 54 % 1017,5 hPa 0,0 l/m 1,00 h 0,00 h 764 W/m 10,2 km/h (2 Bft) 95,87 %
03.06.2022 12:00 23,5 C 25,2 C 22,1 C 52 % 1017,1 hPa 0,0 l/m 0,77 h 0,00 h 622 W/m 11,5 km/h (2 Bft) 99,34 %
03.06.2022 13:00 24,9 C 27,1 C 25,0 C 49 % 1016,7 hPa 0,0 l/m 0,97 h 0,00 h 769 W/m 11,1 km/h (2 Bft) 97,79 %
03.06.2022 14:00 26,6 C 29,9 C 22,2 C 47 % 1016,3 hPa 0,0 l/m 1,00 h 0,00 h 854 W/m 11,5 km/h (2 Bft) 96,72 %
03.06.2022 15:00 26,7 C 28,5 C 22,1 C 48 % 1016,1 hPa 0,0 l/m 0,73 h 0,00 h 581 W/m 9,7 km/h (2 Bft) 98,36 %
03.06.2022 16:00 25,8 C 27,1 C 21,6 C 51 % 1016,1 hPa 0,0 l/m 0,33 h 0,00 h 356 W/m 7,8 km/h (2 Bft) 97,94 %
03.06.2022 17:00 24,8 C 24,8 C 20,4 C 51 % 1015,9 hPa 0,0 l/m 0,00 h 0,00 h 215 W/m 11,5 km/h (2 Bft) 96,15 %
03.06.2022 18:00 24,2 C 25,4 C 20,2 C 54 % 1015,8 hPa 0,0 l/m 0,63 h 0,00 h 288 W/m 13,8 km/h (3 Bft) 99,47 %
03.06.2022 19:00 23,5 C 23,5 C 18,8 C 56 % 1015,9 hPa 0,0 l/m 0,50 h 0,00 h 153 W/m 10,2 km/h (2 Bft) 96,80 %
03.06.2022 20:00 22,4 C 21,4 C 17,3 C 59 % 1016,0 hPa 0,0 l/m 0,00 h 0,00 h 37 W/m 6,7 km/h (2 Bft) 97,72 %
03.06.2022 21:00 21,1 C 20,0 C 16,3 C 61 % 1016,4 hPa 0,0 l/m 0,00 h 0,00 h 11 W/m 7,0 km/h (2 Bft) 97,50 %
03.06.2022 22:00 20,3 C 19,1 C 15,6 C 64 % 1016,9 hPa 0,0 l/m 0,00 h 0,00 h 0 W/m 5,7 km/h (1 Bft) 98,57 %
03.06.2022 23:00 19,8 C 18,9 C 15,2 C 64 % 1017,2 hPa 0,0 l/m 0,00 h 0,00 h 0 W/m 9,8 km/h (2 Bft) 96,79 %
04.06.2022 00:00 19,2 C 18,1 C 14,4 C 66 % 1017,5 hPa 0,0 l/m 0,00 h 0,00 h 0 W/m 10,2 km/h (2 Bft) 98,06 %
04.06.2022 01:00 17,8 C 16,7 C 13,1 C 69 % 1017,4 hPa 0,0 l/m 0,00 h 0,00 h 0 W/m 9,3 km/h (2 Bft) 97,29 %
04.06.2022 02:00 16,7 C 15,8 C 12,3 C 72 % 1017,5 hPa 0,0 l/m 0,00 h 0,00 h 0 W/m 8,6 km/h (2 Bft) 98,08 %
04.06.2022 03:00 16,1 C 15,2 C 11,8 C 75 % 1018,0 hPa 0,0 l/m 0,00 h 0,00 h 0 W/m 8,0 km/h (2 Bft) 97,44 %
04.06.2022 04:00 15,6 C 14,6 C 11,2 C 77 % 1017,9 hPa 0,0 l/m 0,00 h 0,00 h 0 W/m 7,9 km/h (2 Bft) 96,72 %
04.06.2022 05:00 15,1 C 14,3 C 10,9 C 78 % 1017,6 hPa 0,0 l/m 0,00 h 0,00 h 10 W/m 12,7 km/h (3 Bft) 97,62 %
04.06.2022 06:00 14,7 C 14,1 C 10,6 C 80 % 1018,1 hPa 0,0 l/m 0,00 h 0,00 h 46 W/m 10,3 km/h (2 Bft) 97,15 %
04.06.2022 07:00 15,1 C 15,0 C 11,3 C 80 % 1018,5 hPa 0,0 l/m 0,23 h 0,00 h 136 W/m 11,2 km/h (2 Bft) 97,15 %
04.06.2022 08:00 15,9 C 16,2 C 12,2 C 78 % 1018,9 hPa 0,0 l/m 0,30 h 0,00 h 209 W/m 11,2 km/h (2 Bft) 98,57 %
04.06.2022 09:00 16,9 C 17,5 C 13,2 C 76 % 1019,4 hPa 0,0 l/m 0,00 h 0,00 h 268 W/m 11,1 km/h (2 Bft) 97,72 %
04.06.2022 10:00 18,0 C 18,8 C 14,5 C 74 % 1019,3 hPa 0,0 l/m 0,03 h 0,00 h 320 W/m 9,2 km/h (2 Bft) 95,37 %
04.06.2022 11:00 19,0 C 20,2 C 16,1 C 71 % 1019,5 hPa 0,0 l/m 0,43 h 0,00 h 461 W/m 12,9 km/h (3 Bft) 97,72 %
04.06.2022 12:00 21,2 C 23,2 C 20,9 C 67 % 1019,6 hPa 0,0 l/m 1,00 h 0,00 h 692 W/m 11,2 km/h (2 Bft) 98,19 %
04.06.2022 13:00 23,2 C 25,4 C 23,9 C 64 % 1019,6 hPa 0,0 l/m 0,97 h 0,00 h 796 W/m 12,6 km/h (3 Bft) 98,42 %
04.06.2022 14:00 24,8 C 28,0 C 20,9 C 60 % 1019,5 hPa 0,0 l/m 1,00 h 0,00 h 860 W/m 12,5 km/h (3 Bft) 95,08 %
04.06.2022 15:00 25,6 C 28,6 C 21,0 C 58 % 1019,2 hPa 0,0 l/m 1,00 h 0,00 h 834 W/m 12,7 km/h (3 Bft) 98,86 %
04.06.2022 16:00 26,6 C 31,9 C 22,7 C 57 % 1018,9 hPa 0,0 l/m 1,00 h 0,00 h 728 W/m 13,1 km/h (3 Bft) 97,72 %
04.06.2022 17:00 27,4 C 32,8 C 23,8 C 55 % 1018,4 hPa 0,0 l/m 1,00 h 0,00 h 589 W/m 11,1 km/h (2 Bft) 96,16 %
04.06.2022 18:00 27,2 C 32,7 C 23,8 C 55 % 1018,1 hPa 0,0 l/m 1,00 h 0,00 h 422 W/m 12,0 km/h (2 Bft) 98,38 %
04.06.2022 19:00 25,7 C 26,4 C 21,3 C 56 % 1018,0 hPa 0,0 l/m 0,90 h 0,00 h 227 W/m 11,6 km/h (2 Bft) 97,55 %
04.06.2022 20:00 23,9 C 23,3 C 19,4 C 60 % 1018,0 hPa 0,0 l/m 0,00 h 0,00 h 56 W/m 9,5 km/h (2 Bft) 97,79 %
04.06.2022 21:00 22,4 C 21,7 C 17,9 C 64 % 1018,2 hPa 0,0 l/m 0,00 h 0,00 h 16 W/m 8,5 km/h (2 Bft) 97,43 %
04.06.2022 22:00 21,0 C 20,2 C 16,5 C 66 % 1018,4 hPa 0,0 l/m 0,00 h 0,00 h 0 W/m 6,3 km/h (2 Bft) 97,22 %
04.06.2022 23:00 20,2 C 19,3 C 15,8 C 68 % 1017,9 hPa 0,0 l/m 0,00 h 0,00 h 0 W/m 8,2 km/h (2 Bft) 98,37 %
05.06.2022 00:00 19,7 C 18,8 C 15,3 C 71 % 1018,1 hPa 0,0 l/m 0,00 h 0,00 h 0 W/m 6,4 km/h (2 Bft) 91,76 %
05.06.2022 01:00 18,7 C 17,6 C 14,1 C 75 % 1017,8 hPa 0,0 l/m 0,00 h 0,00 h 0 W/m 3,3 km/h (1 Bft) 98,72 %
05.06.2022 02:00 17,8 C 16,8 C 13,3 C 79 % 1017,5 hPa 0,0 l/m 0,00 h 0,00 h 0 W/m 3,6 km/h (1 Bft) 97,01 %
05.06.2022 03:00 16,7 C 15,8 C 12,4 C 82 % 1016,9 hPa 0,0 l/m 0,00 h 0,00 h 0 W/m 4,7 km/h (1 Bft) 98,50 %
05.06.2022 04:00 15,9 C 15,1 C 11,8 C 84 % 1015,8 hPa 0,0 l/m 0,00 h 0,00 h 0 W/m 5,0 km/h (1 Bft) 96,53 %
05.06.2022 05:00 15,8 C 15,1 C 11,8 C 86 % 1014,8 hPa 0,0 l/m 0,00 h 0,00 h 11 W/m 5,6 km/h (1 Bft) 98,26 %
05.06.2022 06:00 16,2 C 15,8 C 12,3 C 86 % 1014,9 hPa 0,0 l/m 0,00 h 0,00 h 36 W/m 4,7 km/h (1 Bft) 97,61 %
05.06.2022 07:00 16,7 C 16,4 C 12,8 C 85 % 1015,3 hPa 0,0 l/m 0,00 h 0,00 h 64 W/m 4,4 km/h (1 Bft) 96,08 %
05.06.2022 08:00 17,4 C 17,5 C 13,6 C 85 % 1014,5 hPa 0,0 l/m 0,00 h 0,00 h 110 W/m 4,9 km/h (1 Bft) 99,01 %
05.06.2022 09:00 18,7 C 19,2 C 15,1 C 83 % 1013,7 hPa 0,0 l/m 0,00 h 0,00 h 199 W/m 6,8 km/h (2 Bft) 97,36 %
05.06.2022 10:00 20,6 C 21,6 C 16,9 C 79 % 1013,6 hPa 0,0 l/m 0,00 h 0,00 h 277 W/m 6,5 km/h (2 Bft) 96,89 %
05.06.2022 11:00 21,0 C 20,0 C 15,9 C 79 % 1013,5 hPa 0,2 l/m 0,00 h 0,30 h 117 W/m 12,0 km/h (2 Bft) 98,57 %
05.06.2022 12:00 18,5 C 17,1 C 13,4 C 93 % 1013,3 hPa 3,0 l/m 0,00 h 1,00 h 130 W/m 11,4 km/h (2 Bft) 97,54 %
05.06.2022 13:00 19,2 C 19,1 C 14,6 C 96 % 1012,6 hPa 0,0 l/m 0,00 h 0,00 h 317 W/m 11,3 km/h (2 Bft) 97,01 %
05.06.2022 14:00 20,2 C 20,6 C 15,5 C 93 % 1011,6 hPa 0,0 l/m 0,17 h 0,00 h 299 W/m 11,2 km/h (2 Bft) 97,93 %
05.06.2022 15:00 21,7 C 22,1 C 17,4 C 86 % 1010,9 hPa 0,2 l/m 0,50 h 0,17 h 311 W/m 11,2 km/h (2 Bft) 98,22 %
05.06.2022 16:00 20,1 C 18,5 C 14,5 C 90 % 1010,4 hPa 1,4 l/m 0,00 h 0,70 h 44 W/m 8,8 km/h (2 Bft) 96,80 %
05.06.2022 17:00 19,3 C 18,5 C 14,5 C 96 % 1009,6 hPa 0,6 l/m 0,00 h 0,17 h 125 W/m 12,1 km/h (2 Bft) 97,36 %
05.06.2022 18:00 18,1 C 17,1 C 13,4 C 95 % 1009,6 hPa 1,0 l/m 0,00 h 0,97 h 82 W/m 26,6 km/h (4 Bft) 96,48 %
05.06.2022 19:00 17,4 C 16,3 C 13,1 C 97 % 1010,6 hPa 0,6 l/m 0,00 h 0,93 h 22 W/m 19,0 km/h (3 Bft) 97,29 %
05.06.2022 20:00 17,0 C 16,1 C 12,8 C 97 % 1011,4 hPa 0,0 l/m 0,00 h 0,43 h 14 W/m 19,8 km/h (4 Bft) 96,94 %
05.06.2022 21:00 16,6 C 15,8 C 12,4 C 97 % 1011,7 hPa 0,2 l/m 0,23 h 0,00 h 17 W/m 16,3 km/h (3 Bft) 98,28 %
05.06.2022 22:00 16,4 C 15,6 C 12,2 C 96 % 1012,7 hPa 0,0 l/m 0,00 h 0,00 h 0 W/m 11,5 km/h (2 Bft) 97,85 %
05.06.2022 23:00 16,3 C 15,4 C 12,3 C 97 % 1013,3 hPa 0,0 l/m 0,00 h 0,00 h 0 W/m 7,0 km/h (2 Bft) 96,73 %
Min-Datum _ 02.06.22 02.06.22 02.06.22 02.06.22 05.06.22 - - - - 30.05.22 05.06.22
_ Min-Zeit 05:28 04:40 04:40 17:28 18:18 - - - - 01:48 00:02
Minimum _ 7,6 C 6,7 C 3,9 C 44 % 1008,9 hPa - - - - 0,0 km/h (0 Bft) 11,11 %
Max-Datum _ 03.06.22 04.06.22 03.06.22 05.06.22 02.06.22 31.05.22 30.05.22 05.06.22 31.05.22 05.06.22 30.05.22
_ Max-Zeit 15:12 16:42 13:48 19:52 11:32 21:40 18:08 12:07 13:56 18:26 00:00
Maximum _ 27,7 C 33,9 C 28,3 C 98 % 1022,6 hPa 3,2 l/m 0,07 h 0,05 h 1185 W/m 61,2 km/h
S-SO (7 Bft)
100,00 %
Durchschnitt _ 16,2 C 16,6 C 12,6 C 74 % 1016,2 hPa #14,0 l/m #50:33 h #6:54 h 323 W/m 7,2 km/h (2 Bft) 97,36 %
© 2022 W. Hausmann